createdAt,value
2023-03-29T00:01:06.767Z,101966.47
2023-03-29T00:03:35.315Z,101968.59
2023-03-29T00:06:05.750Z,101970.75
2023-03-29T00:08:35.374Z,101961.41
2023-03-29T00:11:04.129Z,101974.22
2023-03-29T00:13:33.062Z,101977.03
2023-03-29T00:16:01.551Z,101973.94
2023-03-29T00:18:29.992Z,101965.22
2023-03-29T00:20:59.914Z,101961.22
2023-03-29T00:23:30.899Z,101965.41
2023-03-29T00:25:59.774Z,101962.91
2023-03-29T00:28:28.198Z,101971.28
2023-03-29T00:31:06.621Z,101972.56
2023-03-29T00:33:35.237Z,101969.38
2023-03-29T00:36:04.695Z,101966.19
2023-03-29T00:38:35.339Z,101970.88
2023-03-29T00:41:05.172Z,101975.38
2023-03-29T00:43:52.071Z,101961.38
2023-03-29T00:46:20.575Z,101959.91
2023-03-29T00:48:48.999Z,101961.84
2023-03-29T00:51:19.593Z,101968.09
2023-03-29T00:53:52.138Z,101973.50
2023-03-29T00:56:25.240Z,101972.72
2023-03-29T00:58:58.622Z,101961.19
2023-03-29T01:01:34.260Z,101959.63
2023-03-29T01:04:08.617Z,101964.22
2023-03-29T01:06:43.598Z,101960.66
2023-03-29T01:09:17.574Z,101959.00
2023-03-29T01:11:50.551Z,101963.72
2023-03-29T01:14:23.979Z,101956.56
2023-03-29T01:16:53.526Z,101952.25
2023-03-29T01:19:26.557Z,101952.41
2023-03-29T01:22:04.027Z,101946.50
2023-03-29T01:24:45.883Z,101951.38
2023-03-29T01:27:22.945Z,101950.59
2023-03-29T01:30:00.394Z,101952.16
2023-03-29T01:32:35.503Z,101935.09
2023-03-29T01:35:10.604Z,101932.94
2023-03-29T01:37:42.729Z,101921.47
2023-03-29T01:40:12.156Z,101916.03
2023-03-29T01:42:49.091Z,101923.03
2023-03-29T01:45:26.046Z,101863.38
2023-03-29T01:48:01.231Z,101909.78
2023-03-29T01:50:39.196Z,101911.50
2023-03-29T01:53:11.393Z,101909.31
2023-03-29T01:55:44.861Z,101910.09
2023-03-29T01:58:17.826Z,101845.88
2023-03-29T02:00:50.964Z,101899.13
2023-03-29T02:03:22.089Z,101914.88
2023-03-29T02:05:51.749Z,101911.81
2023-03-29T02:08:23.266Z,101908.63
2023-03-29T02:10:53.039Z,101890.72
2023-03-29T02:13:21.838Z,101875.50
2023-03-29T02:15:52.928Z,101909.69
2023-03-29T02:18:21.791Z,101906.19
2023-03-29T02:20:52.245Z,101888.06
2023-03-29T02:23:27.441Z,101900.91
2023-03-29T02:25:57.171Z,101901.16
2023-03-29T02:28:28.277Z,101903.94
2023-03-29T02:31:03.356Z,101903.88
2023-03-29T02:33:42.240Z,101902.63
2023-03-29T02:36:17.837Z,101906.03
2023-03-29T02:38:47.661Z,101906.03
2023-03-29T02:41:17.978Z,101903.81
2023-03-29T02:43:48.526Z,101899.66
2023-03-29T02:46:20.622Z,101909.69
2023-03-29T02:48:53.286Z,101906.25
2023-03-29T02:51:26.013Z,101890.38
2023-03-29T02:54:00.584Z,101886.50
2023-03-29T02:56:29.184Z,101832.38
2023-03-29T02:58:57.529Z,101892.34
2023-03-29T03:01:28.043Z,101891.66
2023-03-29T03:03:56.605Z,101893.88
2023-03-29T03:06:25.224Z,101881.09
2023-03-29T03:08:53.861Z,101876.66
2023-03-29T03:11:22.972Z,101880.81
2023-03-29T03:13:52.686Z,101873.88
2023-03-29T03:16:22.006Z,101879.31
2023-03-29T03:18:53.935Z,101868.13
2023-03-29T03:21:23.032Z,101874.50
2023-03-29T03:23:52.119Z,101884.44
2023-03-29T03:26:20.638Z,101876.72
2023-03-29T03:28:49.071Z,101875.28
2023-03-29T03:31:37.506Z,101877.72
2023-03-29T03:34:16.557Z,101891.88
2023-03-29T03:36:54.811Z,101894.44
2023-03-29T03:39:24.035Z,101890.09
2023-03-29T03:41:52.494Z,101885.16
2023-03-29T03:44:21.273Z,101876.38
2023-03-29T03:46:59.138Z,101878.78
2023-03-29T03:49:29.275Z,101882.28
2023-03-29T03:51:57.696Z,101878.00
2023-03-29T03:54:26.225Z,101874.75
2023-03-29T03:57:26.805Z,101874.47
2023-03-29T03:59:55.365Z,101866.53
2023-03-29T04:02:29.001Z,101877.88
2023-03-29T04:05:03.148Z,101885.63
2023-03-29T04:07:36.403Z,101888.47
2023-03-29T04:10:25.865Z,101886.16
2023-03-29T04:13:12.063Z,101898.09
2023-03-29T04:16:01.748Z,101891.16
2023-03-29T04:18:31.167Z,101898.09
2023-03-29T04:21:02.791Z,101897.44
2023-03-29T04:23:33.641Z,101898.31
2023-03-29T04:26:02.023Z,101898.22
2023-03-29T04:28:43.740Z,101901.59
2023-03-29T04:31:17.083Z,101903.44
2023-03-29T04:33:51.806Z,101903.84
2023-03-29T04:36:22.307Z,101905.75
2023-03-29T04:38:52.461Z,101901.47
2023-03-29T04:41:21.811Z,101890.63
2023-03-29T04:44:04.006Z,101889.50
2023-03-29T04:46:33.450Z,101877.63
2023-03-29T04:49:20.179Z,101879.22
2023-03-29T04:51:54.530Z,101886.22
2023-03-29T04:54:26.750Z,101876.63
2023-03-29T04:57:18.546Z,101883.88
2023-03-29T04:59:57.308Z,101874.22
2023-03-29T05:02:44.749Z,101889.28
2023-03-29T05:05:15.354Z,101866.09
2023-03-29T05:07:46.646Z,101894.94
2023-03-29T05:10:16.550Z,101890.34
2023-03-29T05:12:45.559Z,101889.44
2023-03-29T05:15:14.925Z,101886.63
2023-03-29T05:17:44.115Z,101887.31
2023-03-29T05:20:14.593Z,101887.41
2023-03-29T05:22:46.553Z,101886.09
2023-03-29T05:25:27.122Z,101889.94
2023-03-29T05:27:55.504Z,101884.41
2023-03-29T05:30:23.965Z,101868.19
2023-03-29T05:33:05.968Z,101863.38
2023-03-29T05:35:36.739Z,101861.53
2023-03-29T05:38:10.824Z,101868.38
2023-03-29T05:40:39.418Z,101866.88
2023-03-29T05:43:28.323Z,101857.47
2023-03-29T05:45:57.633Z,101867.97
2023-03-29T05:48:27.651Z,101871.41
2023-03-29T05:50:57.939Z,101868.69
2023-03-29T05:53:29.722Z,101865.09
2023-03-29T05:55:58.466Z,101875.53
2023-03-29T05:58:29.094Z,101882.41
2023-03-29T06:00:58.318Z,101880.44
2023-03-29T06:03:44.148Z,101887.19
2023-03-29T06:06:15.420Z,101888.59
2023-03-29T06:08:46.679Z,101893.59
2023-03-29T06:11:24.572Z,101894.06
2023-03-29T06:14:23.521Z,101892.25
2023-03-29T06:16:59.178Z,101891.75
2023-03-29T06:19:27.801Z,101901.88
2023-03-29T06:21:56.705Z,101891.09
2023-03-29T06:24:30.090Z,101903.00
2023-03-29T06:27:05.059Z,101906.25
2023-03-29T06:29:33.535Z,101904.03
2023-03-29T06:32:02.224Z,101916.97
2023-03-29T06:34:46.391Z,101916.72
2023-03-29T06:37:37.277Z,101917.16
2023-03-29T06:40:23.108Z,101921.78
2023-03-29T06:42:57.903Z,101940.53
2023-03-29T06:45:32.360Z,101930.97
2023-03-29T06:48:03.305Z,101930.47
2023-03-29T06:50:33.242Z,101927.19
2023-03-29T06:53:20.889Z,101924.63
2023-03-29T06:55:58.015Z,101929.81
2023-03-29T06:58:48.693Z,101927.78
2023-03-29T07:01:40.170Z,101933.72
2023-03-29T07:04:18.212Z,101925.78
2023-03-29T07:07:20.948Z,101921.72
2023-03-29T07:10:01.930Z,101913.16
2023-03-29T07:12:51.876Z,101922.66
2023-03-29T07:15:21.584Z,101928.66
2023-03-29T07:18:08.059Z,101921.25
2023-03-29T07:20:38.494Z,101891.72
2023-03-29T07:23:09.647Z,101926.19
2023-03-29T07:25:39.455Z,101917.50
2023-03-29T07:28:09.604Z,101912.13
2023-03-29T07:30:38.501Z,101912.78
2023-03-29T07:33:14.629Z,101903.19
2023-03-29T07:35:59.316Z,101911.19
2023-03-29T07:38:28.332Z,101915.63
2023-03-29T07:41:04.912Z,101913.59
2023-03-29T07:43:35.639Z,101921.31
2023-03-29T07:46:04.970Z,101931.56
2023-03-29T07:48:37.289Z,101938.94
2023-03-29T07:51:15.087Z,101925.56
2023-03-29T07:53:49.298Z,101925.50
2023-03-29T07:56:36.450Z,101932.56
2023-03-29T07:59:17.058Z,101936.81
2023-03-29T08:01:50.430Z,101937.25
2023-03-29T08:04:33.457Z,101939.53
2023-03-29T08:07:19.358Z,101928.59
2023-03-29T08:10:12.413Z,101928.94
2023-03-29T08:13:06.147Z,101933.50
2023-03-29T08:15:52.447Z,101936.53
2023-03-29T08:18:32.814Z,101932.75
2023-03-29T08:21:05.369Z,101932.66
2023-03-29T08:23:35.584Z,101935.31
2023-03-29T08:26:20.818Z,101928.22
2023-03-29T08:28:50.959Z,101938.22
2023-03-29T08:31:24.828Z,101938.66
2023-03-29T08:33:53.862Z,101933.41
2023-03-29T08:36:47.328Z,101926.91
2023-03-29T08:39:26.507Z,101934.22
2023-03-29T08:42:31.902Z,101927.84
2023-03-29T08:45:10.880Z,101921.69
2023-03-29T08:47:53.896Z,101916.31
2023-03-29T08:50:34.155Z,101897.09
2023-03-29T08:53:11.767Z,101881.00
2023-03-29T08:56:02.708Z,101919.06
2023-03-29T08:59:04.019Z,101919.38
2023-03-29T09:01:37.619Z,101921.28
2023-03-29T09:04:11.453Z,101905.06
2023-03-29T09:06:59.501Z,101913.88
2023-03-29T09:09:36.920Z,101920.06
2023-03-29T09:12:39.656Z,101915.81
2023-03-29T09:15:15.523Z,101905.81
2023-03-29T09:18:03.861Z,101872.72
2023-03-29T09:20:43.528Z,101901.50
2023-03-29T09:23:42.726Z,101903.63
2023-03-29T09:26:42.984Z,101915.94
2023-03-29T09:29:42.387Z,101908.16
2023-03-29T09:32:21.095Z,101889.34
2023-03-29T09:35:02.374Z,101893.84
2023-03-29T09:37:35.596Z,101889.75
2023-03-29T09:40:12.394Z,101887.63
2023-03-29T09:42:56.268Z,101886.81
2023-03-29T09:45:25.044Z,101878.69
2023-03-29T09:47:58.999Z,101883.91
2023-03-29T09:50:36.022Z,101854.31
2023-03-29T09:53:10.273Z,101887.41
2023-03-29T09:55:45.120Z,101854.16
2023-03-29T09:58:32.144Z,101886.13
2023-03-29T10:01:03.224Z,101875.50
2023-03-29T10:03:35.090Z,101874.78
2023-03-29T10:06:15.809Z,101876.19
2023-03-29T10:08:55.110Z,101833.13
2023-03-29T10:11:31.165Z,101863.78
2023-03-29T10:14:02.939Z,101834.66
2023-03-29T10:16:36.313Z,101829.47
2023-03-29T10:19:18.630Z,101853.31
2023-03-29T10:21:50.137Z,101845.03
2023-03-29T10:24:24.893Z,101848.22
2023-03-29T10:26:55.972Z,101844.88
2023-03-29T10:29:25.326Z,101837.06
2023-03-29T10:31:54.484Z,101833.22
2023-03-29T10:34:28.251Z,101827.78
2023-03-29T10:37:00.198Z,101765.41
2023-03-29T10:39:34.121Z,101824.34
2023-03-29T10:42:05.373Z,101796.88
2023-03-29T10:44:36.272Z,101812.84
2023-03-29T10:47:16.194Z,101811.88
2023-03-29T10:49:47.694Z,101808.41
2023-03-29T10:52:17.814Z,101806.06
2023-03-29T10:54:48.587Z,101783.78
2023-03-29T10:57:27.857Z,101800.19
2023-03-29T11:00:02.706Z,101797.03
2023-03-29T11:02:50.361Z,101793.16
2023-03-29T11:05:29.239Z,101794.88
2023-03-29T11:08:18.610Z,101785.59
2023-03-29T11:10:58.060Z,101776.97
2023-03-29T11:13:34.633Z,101777.28
2023-03-29T11:16:15.020Z,101774.94
2023-03-29T11:19:11.948Z,101790.50
2023-03-29T11:21:46.305Z,101791.69
2023-03-29T11:24:28.665Z,101779.31
2023-03-29T11:27:14.118Z,101783.72
2023-03-29T11:29:53.522Z,101783.03
2023-03-29T11:32:30.467Z,101774.09
2023-03-29T11:35:09.305Z,101764.78
2023-03-29T11:37:44.011Z,101766.47
2023-03-29T11:40:32.022Z,101770.69
2023-03-29T11:43:05.538Z,101767.66
2023-03-29T11:45:40.004Z,101729.97
2023-03-29T11:48:19.096Z,101764.97
2023-03-29T11:50:54.529Z,101746.53
2023-03-29T11:53:28.875Z,101759.38
2023-03-29T11:56:01.683Z,101751.25
2023-03-29T11:58:38.730Z,101750.91
2023-03-29T12:01:12.220Z,101756.81
2023-03-29T12:03:47.105Z,101737.88
2023-03-29T12:06:22.451Z,101742.06
2023-03-29T12:08:56.763Z,101746.28
2023-03-29T12:11:30.886Z,101714.84
2023-03-29T12:14:06.106Z,101734.28
2023-03-29T12:16:40.994Z,101725.31
2023-03-29T12:19:17.432Z,101718.56
2023-03-29T12:21:47.568Z,101719.88
2023-03-29T12:24:20.568Z,101721.06
2023-03-29T12:27:04.472Z,101717.00
2023-03-29T12:29:50.493Z,101706.22
2023-03-29T12:32:38.535Z,101708.88
2023-03-29T12:35:37.918Z,101708.72
2023-03-29T12:38:29.391Z,101699.06
2023-03-29T12:41:20.288Z,101703.13
2023-03-29T12:44:10.260Z,101694.16
2023-03-29T12:47:03.872Z,101697.66
2023-03-29T12:49:35.645Z,101688.66
2023-03-29T12:52:07.700Z,101694.22
2023-03-29T12:54:36.118Z,101683.69
2023-03-29T12:57:21.316Z,101676.69
2023-03-29T12:59:52.462Z,101678.88
2023-03-29T13:02:37.376Z,101667.38
2023-03-29T13:05:26.622Z,101661.91
2023-03-29T13:07:56.187Z,101662.22
2023-03-29T13:10:42.492Z,101649.47
2023-03-29T13:13:18.207Z,101652.00
2023-03-29T13:15:47.100Z,101646.31
2023-03-29T13:18:56.653Z,101643.94
2023-03-29T13:21:36.472Z,101642.41
2023-03-29T13:24:20.263Z,101609.47
2023-03-29T13:26:59.335Z,101629.34
2023-03-29T13:29:52.527Z,101625.09
2023-03-29T13:32:38.395Z,101623.75
2023-03-29T13:35:18.467Z,101617.31
2023-03-29T13:38:00.291Z,101619.03
2023-03-29T13:40:47.040Z,101620.75
2023-03-29T13:43:31.027Z,101612.25
2023-03-29T13:46:17.878Z,101590.22
2023-03-29T13:49:04.887Z,101608.09
2023-03-29T13:51:40.738Z,101604.97
2023-03-29T13:54:20.179Z,101600.50
2023-03-29T13:56:59.354Z,101600.81
2023-03-29T13:59:35.737Z,101599.50
2023-03-29T14:02:05.849Z,101601.00
2023-03-29T14:04:40.249Z,101603.34
2023-03-29T14:07:10.825Z,101593.63
2023-03-29T14:09:44.425Z,101563.09
2023-03-29T14:12:15.904Z,101576.41
2023-03-29T14:14:58.415Z,101570.97
2023-03-29T14:17:28.137Z,101599.31
2023-03-29T14:19:59.704Z,101587.69
2023-03-29T14:22:32.582Z,101593.75
2023-03-29T14:25:09.623Z,101589.94
2023-03-29T14:27:38.504Z,101576.44
2023-03-29T14:30:21.769Z,101566.44
2023-03-29T14:32:52.508Z,101567.47
2023-03-29T14:35:24.040Z,101569.69
2023-03-29T14:37:52.742Z,101571.97
2023-03-29T14:40:23.111Z,101568.56
2023-03-29T14:42:52.236Z,101553.09
2023-03-29T14:45:24.622Z,101571.69
2023-03-29T14:47:53.716Z,101568.13
2023-03-29T14:50:27.951Z,101563.09
2023-03-29T14:52:58.932Z,101564.66
2023-03-29T14:55:29.264Z,101562.13
2023-03-29T14:58:00.311Z,101558.88
2023-03-29T15:00:30.738Z,101558.44
2023-03-29T15:03:01.890Z,101555.84
2023-03-29T15:05:36.956Z,101545.00
2023-03-29T15:08:07.488Z,101548.56
2023-03-29T15:10:39.355Z,101551.63
2023-03-29T15:13:09.308Z,101538.78
2023-03-29T15:15:39.645Z,101553.09
2023-03-29T15:18:11.370Z,101535.69
2023-03-29T15:20:41.391Z,101541.59
2023-03-29T15:23:21.263Z,101531.97
2023-03-29T15:25:55.454Z,101490.94
2023-03-29T15:28:28.526Z,101534.84
2023-03-29T15:33:36.193Z,101513.94
2023-03-29T15:36:06.816Z,101519.72
2023-03-29T15:38:44.070Z,101514.97
2023-03-29T15:41:15.661Z,101518.81
2023-03-29T15:43:44.658Z,101495.69
2023-03-29T15:46:14.796Z,101516.78
2023-03-29T15:48:44.050Z,101514.91
2023-03-29T15:51:13.422Z,101497.38
2023-03-29T15:53:42.431Z,101524.09
2023-03-29T15:56:16.330Z,101518.63
2023-03-29T15:58:46.714Z,101510.56
2023-03-29T16:01:34.514Z,101515.81
2023-03-29T16:04:03.891Z,101520.13
2023-03-29T16:06:32.888Z,101518.47
2023-03-29T16:09:01.477Z,101525.25
2023-03-29T16:11:30.077Z,101516.84
2023-03-29T16:14:00.514Z,101517.03
2023-03-29T16:16:28.898Z,101511.16
2023-03-29T16:18:57.361Z,101513.09
2023-03-29T16:21:25.921Z,101522.75
2023-03-29T16:23:54.402Z,101521.91
2023-03-29T16:26:23.231Z,101524.94
2023-03-29T16:28:51.827Z,101524.66
2023-03-29T16:31:23.644Z,101524.31
2023-03-29T16:33:52.563Z,101525.31
2023-03-29T16:36:20.908Z,101528.84
2023-03-29T16:38:49.422Z,101528.19
2023-03-29T16:41:18.945Z,101530.88
2023-03-29T16:43:47.443Z,101535.25
2023-03-29T16:46:15.820Z,101531.22
2023-03-29T16:48:46.435Z,101529.63
2023-03-29T16:51:14.860Z,101529.94
2023-03-29T16:53:43.240Z,101531.78
2023-03-29T16:56:12.190Z,101530.56
2023-03-29T16:58:40.967Z,101530.06
2023-03-29T17:01:11.007Z,101529.03
2023-03-29T17:03:39.539Z,101538.47
2023-03-29T17:06:11.279Z,101536.03
2023-03-29T17:08:42.185Z,101527.56
2023-03-29T17:11:11.931Z,101522.72
2023-03-29T17:13:40.498Z,101543.28
2023-03-29T17:16:09.511Z,101560.81
2023-03-29T17:18:38.059Z,101554.16
2023-03-29T17:21:07.372Z,101555.09
2023-03-29T17:23:37.274Z,101550.88
2023-03-29T17:26:07.111Z,101554.34
2023-03-29T17:28:36.048Z,101555.16
2023-03-29T17:31:07.154Z,101556.31
2023-03-29T17:33:36.327Z,101539.66
2023-03-29T17:36:06.973Z,101527.72
2023-03-29T17:38:38.210Z,101574.56
2023-03-29T17:41:08.065Z,101569.63
2023-03-29T17:43:36.526Z,101572.13
2023-03-29T17:46:05.372Z,101578.41
2023-03-29T17:48:34.223Z,101572.94
2023-03-29T17:51:02.730Z,101576.94
2023-03-29T17:53:31.134Z,101585.09
2023-03-29T17:56:01.463Z,101579.88
2023-03-29T17:58:30.286Z,101586.09
2023-03-29T18:00:58.694Z,101583.41
2023-03-29T18:03:27.415Z,101589.78
2023-03-29T18:05:56.676Z,101585.88
2023-03-29T18:08:25.146Z,101594.78
2023-03-29T18:10:53.607Z,101599.47
2023-03-29T18:13:25.591Z,101606.00
2023-03-29T18:15:57.939Z,101600.63
2023-03-29T18:18:27.285Z,101598.91
2023-03-29T18:20:55.856Z,101601.47
2023-03-29T18:23:24.277Z,101604.56
2023-03-29T18:25:52.856Z,101599.03
2023-03-29T18:28:25.154Z,101598.72
2023-03-29T18:30:53.739Z,101607.09
2023-03-29T18:33:22.260Z,101598.88
2023-03-29T18:35:51.609Z,101603.16
2023-03-29T18:38:21.685Z,101612.38
2023-03-29T18:40:50.501Z,101611.38
2023-03-29T18:43:19.225Z,101613.38
2023-03-29T18:45:49.240Z,101611.97
2023-03-29T18:48:17.744Z,101621.63
2023-03-29T18:50:47.079Z,101616.56
2023-03-29T18:53:16.194Z,101622.94
2023-03-29T18:55:45.563Z,101605.44
2023-03-29T18:58:15.090Z,101617.28
2023-03-29T19:00:44.108Z,101613.75
2023-03-29T19:03:13.991Z,101619.97
2023-03-29T19:05:42.737Z,101618.13
2023-03-29T19:08:11.349Z,101616.03
2023-03-29T19:10:40.772Z,101629.91
2023-03-29T19:13:09.176Z,101629.06
2023-03-29T19:18:08.879Z,101639.13
2023-03-29T19:20:39.644Z,101630.19
2023-03-29T19:23:08.219Z,101642.38
2023-03-29T19:25:36.772Z,101644.69
2023-03-29T19:28:05.786Z,101648.38
2023-03-29T19:30:36.663Z,101639.63
2023-03-29T19:33:05.108Z,101636.38
2023-03-29T19:35:33.592Z,101647.97
2023-03-29T19:38:03.452Z,101651.38
2023-03-29T19:40:31.876Z,101654.06
2023-03-29T19:43:00.257Z,101663.69
2023-03-29T19:45:28.755Z,101654.34
2023-03-29T19:47:58.068Z,101654.06
2023-03-29T19:50:27.876Z,101650.09
2023-03-29T19:52:57.319Z,101657.63
2023-03-29T19:55:27.341Z,101628.25
2023-03-29T19:57:55.749Z,101651.97
2023-03-29T20:00:25.255Z,101659.34
2023-03-29T20:02:55.720Z,101662.03
2023-03-29T20:05:24.356Z,101664.41
2023-03-29T20:07:52.894Z,101653.81
2023-03-29T20:10:21.532Z,101659.34
2023-03-29T20:12:51.266Z,101656.13
2023-03-29T20:15:20.224Z,101651.88
2023-03-29T20:17:48.656Z,101650.19
2023-03-29T20:20:17.219Z,101653.31
2023-03-29T20:22:47.821Z,101653.59
2023-03-29T20:25:16.164Z,101654.72
2023-03-29T20:27:45.486Z,101653.31
2023-03-29T20:30:15.824Z,101647.78
2023-03-29T20:32:44.301Z,101650.47
2023-03-29T20:35:12.832Z,101651.31
2023-03-29T20:37:41.211Z,101653.31
2023-03-29T20:40:11.378Z,101644.81
2023-03-29T20:42:39.818Z,101647.50
2023-03-29T20:45:18.793Z,101643.09
2023-03-29T20:53:43.180Z,101637.16
2023-03-29T20:56:13.256Z,101643.41
2023-03-29T20:58:42.244Z,101632.34
2023-03-29T21:01:12.435Z,101634.03
2023-03-29T21:03:42.732Z,101633.50
2023-03-29T21:06:14.125Z,101630.94
2023-03-29T21:08:42.718Z,101630.09
2023-03-29T21:11:13.205Z,101631.78
2023-03-29T21:13:42.263Z,101632.06
2023-03-29T21:16:11.456Z,101633.78
2023-03-29T21:18:43.241Z,101631.22
2023-03-29T21:21:13.160Z,101624.00
2023-03-29T21:23:41.833Z,101628.53
2023-03-29T21:26:10.164Z,101629.53
2023-03-29T21:28:38.796Z,101628.84
2023-03-29T21:31:07.572Z,101626.16
2023-03-29T21:33:36.608Z,101628.41
2023-03-29T21:36:06.918Z,101632.22
2023-03-29T21:38:35.695Z,101640.75
2023-03-29T21:41:04.361Z,101648.38
2023-03-29T21:43:33.272Z,101661.66
2023-03-29T21:46:02.725Z,101644.69
2023-03-29T21:48:32.473Z,101643.84
2023-03-29T21:51:01.167Z,101641.16
2023-03-29T21:53:31.131Z,101645.53
2023-03-29T21:55:59.651Z,101643.97
2023-03-29T21:58:28.213Z,101646.13
2023-03-29T22:00:56.999Z,101642.03
2023-03-29T22:03:25.456Z,101631.44
2023-03-29T22:05:58.920Z,101640.63
2023-03-29T22:08:27.804Z,101638.22
2023-03-29T22:10:58.109Z,101627.34
2023-03-29T22:13:28.242Z,101632.56
2023-03-29T22:15:59.390Z,101474.91
2023-03-29T22:18:30.194Z,101626.47
2023-03-29T22:20:58.864Z,101597.78
2023-03-29T22:23:27.094Z,101616.72
2023-03-29T22:25:55.426Z,101616.16
2023-03-29T22:28:25.093Z,101621.69
2023-03-29T22:30:53.481Z,101632.44
2023-03-29T22:33:21.732Z,101635.53
2023-03-29T22:35:50.039Z,101642.47
2023-03-29T22:38:18.355Z,101649.81
2023-03-29T22:40:46.743Z,101658.44
2023-03-29T22:43:14.989Z,101658.44
2023-03-29T22:45:44.892Z,101650.53
2023-03-29T22:48:13.262Z,101649.41
2023-03-29T22:50:43.015Z,101640.34
2023-03-29T22:53:11.680Z,101625.34
2023-03-29T22:55:40.019Z,101630.44
2023-03-29T22:58:08.879Z,101631.28
2023-03-29T23:00:37.334Z,101635.81
2023-03-29T23:03:07.122Z,101634.69
2023-03-29T23:05:35.647Z,101618.72
2023-03-29T23:08:03.979Z,101636.38
2023-03-29T23:10:32.374Z,101640.75
2023-03-29T23:13:08.938Z,101634.69
2023-03-29T23:15:37.659Z,101618.31
2023-03-29T23:18:07.651Z,101618.28
2023-03-29T23:20:36.298Z,101609.53
2023-03-29T23:23:04.738Z,101622.38
2023-03-29T23:25:33.130Z,101623.38
2023-03-29T23:28:01.455Z,101629.34
2023-03-29T23:30:31.020Z,101630.91
2023-03-29T23:33:00.215Z,101624.13
2023-03-29T23:35:30.337Z,101628.50
2023-03-29T23:37:59.830Z,101627.34
2023-03-29T23:40:28.322Z,101627.63
2023-03-29T23:42:59.576Z,101618.84
2023-03-29T23:45:28.753Z,101599.19
2023-03-29T23:47:57.939Z,101604.72
2023-03-29T23:50:28.684Z,101567.84
2023-03-29T23:52:58.457Z,101547.91
2023-03-29T23:55:26.869Z,101601.19
2023-03-29T23:57:55.282Z,101604.72
